| time (UTC) | temp F | wind direction | speed MPH | gust MPH | rain 1hr in | rain 24hr in | rain mn in | humidity % | barometer mb |
| 20260507232034 | 73 | 184 | 6.0 | 10.0 | 0.00 | 0.00 | 0.00 | 59 | 1011.6 |
| 20260507231530 | 73 | 217 | 8.0 | 11.0 | 0.00 | 0.00 | 0.00 | 58 | 1011.6 |
| 20260507231028 | 74 | 233 | 6.0 | 9.0 | 0.00 | 0.00 | 0.00 | 57 | 1011.2 |
| 20260507230524 | 74 | 223 | 4.0 | 7.0 | 0.00 | 0.00 | 0.00 | 58 | 1011.2 |
| 20260507230021 | 74 | 252 | 3.0 | 8.0 | 0.00 | 0.00 | 0.00 | 57 | 1011.6 |
| 20260507225516 | 74 | 195 | 4.0 | 10.0 | 0.00 | 0.00 | 0.00 | 57 | 1011.6 |
| 20260507225012 | 73 | 209 | 4.0 | 8.0 | 0.00 | 0.00 | 0.00 | 57 | 1011.6 |
| 20260507224508 | 74 | 202 | 4.0 | 8.0 | 0.00 | 0.00 | 0.00 | 56 | 1011.6 |
| 20260507224005 | 75 | 210 | 7.0 | 9.0 | 0.00 | 0.00 | 0.00 | 55 | 1011.9 |
| 20260507223501 | 74 | 234 | 6.0 | 10.0 | 0.00 | 0.00 | 0.00 | 57 | 1011.9 |
| 20260507222958 | 73 | 221 | 5.0 | 9.0 | 0.00 | 0.00 | 0.00 | 57 | 1011.9 |
| 20260507222455 | 74 | 204 | 6.0 | 9.0 | 0.00 | 0.00 | 0.00 | 56 | 1011.6 |
| 20260507221951 | 73 | 178 | 6.0 | 10.0 | 0.00 | 0.00 | 0.00 | 58 | 1011.9 |
| 20260507221448 | 73 | 233 | 4.0 | 6.0 | 0.00 | 0.00 | 0.00 | 59 | 1011.6 |
| 20260507220945 | 74 | 164 | 3.0 | 10.0 | 0.00 | 0.00 | 0.00 | 58 | 1011.9 |
| 20260507220443 | 74 | 190 | 7.0 | 10.0 | 0.00 | 0.00 | 0.00 | 57 | 1012.3 |
| 20260507215939 | 74 | 175 | 5.0 | 7.0 | 0.00 | 0.00 | 0.00 | 58 | 1012.3 |
| 20260507215435 | 74 | 186 | 5.0 | 7.0 | 0.00 | 0.00 | 0.00 | 57 | 1012.3 |
| 20260507214933 | 73 | 213 | 7.0 | 10.0 | 0.00 | 0.00 | 0.00 | 59 | 1012.3 |
| 20260507214431 | 74 | 210 | 5.0 | 10.0 | 0.00 | 0.00 | 0.00 | 58 | 1012.3 |
| 20260507213926 | 74 | 236 | 8.0 | 9.0 | 0.00 | 0.00 | 0.00 | 56 | 1012.6 |
| 20260507213423 | 75 | 186 | 7.0 | 9.0 | 0.00 | 0.00 | 0.00 | 57 | 1012.3 |
| 20260507212920 | 74 | 211 | 7.0 | 10.0 | 0.00 | 0.00 | 0.00 | 57 | 1012.6 |
| 20260507212415 | 75 | 183 | 1.0 | 8.0 | 0.00 | 0.00 | 0.00 | 55 | 1012.6 |
| 20260507211912 | 75 | 196 | 1.0 | 8.0 | 0.00 | 0.00 | 0.00 | 55 | 1012.6 |
| 20260507211409 | 75 | 216 | 5.0 | 8.0 | 0.00 | 0.00 | 0.00 | 56 | 1012.6 |
| 20260507210906 | 74 | 216 | 4.0 | 10.0 | 0.00 | 0.00 | 0.00 | 56 | 1012.6 |
| 20260507210403 | 75 | 207 | 4.0 | 7.0 | 0.00 | 0.00 | 0.00 | 56 | 1012.6 |
| 20260507205859 | 74 | 214 | 2.0 | 9.0 | 0.00 | 0.00 | 0.00 | 57 | 1012.6 |
| 20260507205356 | 75 | 233 | 5.0 | 8.0 | 0.00 | 0.00 | 0.00 | 55 | 1012.6 |
| 20260507204852 | 75 | 244 | 5.0 | 7.0 | 0.00 | 0.00 | 0.00 | 56 | 1012.6 |
| 20260507204349 | 74 | 252 | 4.0 | 8.0 | 0.00 | 0.00 | 0.00 | 58 | 1013.0 |
| 20260507203847 | 74 | 168 | 3.0 | 8.0 | 0.00 | 0.00 | 0.00 | 59 | 1012.6 |
| 20260507203345 | 75 | 179 | 1.0 | 8.0 | 0.00 | 0.00 | 0.00 | 57 | 1013.0 |
| 20260507202841 | 74 | 212 | 7.0 | 9.0 | 0.00 | 0.00 | 0.00 | 60 | 1013.0 |
| 20260507202337 | 75 | 216 | 4.0 | 10.0 | 0.00 | 0.00 | 0.00 | 58 | 1013.0 |
| 20260507201833 | 73 | 197 | 1.0 | 8.0 | 0.00 | 0.00 | 0.00 | 60 | 1012.6 |
| 20260507201328 | 73 | 200 | 2.0 | 9.0 | 0.00 | 0.00 | 0.00 | 60 | 1013.0 |
| 20260507200825 | 74 | 207 | 5.0 | 10.0 | 0.00 | 0.00 | 0.00 | 60 | 1012.6 |
| 20260507200321 | 76 | 204 | 3.0 | 8.0 | 0.00 | 0.00 | 0.00 | 55 | 1013.0 |
| 20260507195817 | 74 | 261 | 4.0 | 7.0 | 0.00 | 0.00 | 0.00 | 58 | 1013.0 |
| 20260507195315 | 73 | 202 | 7.0 | 9.0 | 0.00 | 0.00 | 0.00 | 60 | 1013.0 |
| 20260507194812 | 75 | 209 | 3.0 | 6.0 | 0.00 | 0.00 | 0.00 | 56 | 1013.4 |
| 20260507194308 | 74 | 232 | 4.0 | 7.0 | 0.00 | 0.00 | 0.00 | 58 | 1013.0 |
| 20260507193805 | 74 | 225 | 3.0 | 8.0 | 0.00 | 0.00 | 0.00 | 57 | 1013.0 |
| 20260507193302 | 74 | 167 | 3.0 | 11.0 | 0.00 | 0.00 | 0.00 | 58 | 1013.0 |
| 20260507192757 | 74 | 172 | 3.0 | 9.0 | 0.00 | 0.00 | 0.00 | 59 | 1013.0 |
| 20260507192255 | 74 | 224 | 3.0 | 9.0 | 0.00 | 0.00 | 0.00 | 59 | 1013.4 |
| 20260507191750 | 73 | 227 | 3.0 | 7.0 | 0.00 | 0.00 | 0.00 | 60 | 1013.4 |
| 20260507191247 | 74 | 226 | 5.0 | 7.0 | 0.00 | 0.00 | 0.00 | 57 | 1013.4 |
| 20260507190744 | 75 | 181 | 3.0 | 7.0 | 0.00 | 0.00 | 0.00 | 57 | 1013.4 |
| 20260507190243 | 74 | 239 | 1.0 | 5.0 | 0.00 | 0.00 | 0.00 | 59 | 1013.4 |
| 20260507185741 | 72 | 211 | 1.0 | 8.0 | 0.00 | 0.00 | 0.00 | 60 | 1013.4 |
| 20260507185237 | 73 | 112 | 3.0 | 6.0 | 0.00 | 0.00 | 0.00 | 58 | 1013.7 |
| 20260507184735 | 73 | 251 | 4.0 | 6.0 | 0.00 | 0.00 | 0.00 | 58 | 1013.4 |
| 20260507184233 | 74 | 224 | 8.0 | 10.0 | 0.00 | 0.00 | 0.00 | 60 | 1013.7 |
| 20260507183729 | 74 | 179 | 4.0 | 5.0 | 0.00 | 0.00 | 0.00 | 58 | 1014.0 |
| 20260507183226 | 73 | 242 | 6.0 | 7.0 | 0.00 | 0.00 | 0.00 | 60 | 1013.7 |
| 20260507182724 | 73 | 197 | 6.0 | 8.0 | 0.00 | 0.00 | 0.00 | 60 | 1013.7 |
| 20260507182218 | 73 | 246 | 4.0 | 7.0 | 0.00 | 0.00 | 0.00 | 59 | 1013.7 |
| 20260507181716 | 73 | 172 | 4.0 | 7.0 | 0.00 | 0.00 | 0.00 | 58 | 1014.0 |
| 20260507181212 | 73 | 200 | 5.0 | 6.0 | 0.00 | 0.00 | 0.00 | 57 | 1014.0 |
| 20260507180710 | 71 | 216 | 2.0 | 2.0 | 0.00 | 0.00 | 0.00 | 60 | 1014.0 |
| 20260507180206 | 73 | 258 | 3.0 | 3.0 | 0.00 | 0.00 | 0.00 | 57 | 1014.0 |
| 20260507175701 | 72 | 174 | 3.0 | 5.0 | 0.00 | 0.00 | 0.00 | 58 | 1013.7 |
| 20260507175159 | 71 | 169 | 2.0 | 7.0 | 0.00 | 0.00 | 0.00 | 60 | 1014.0 |
| 20260507174656 | 71 | 263 | 4.0 | 7.0 | 0.00 | 0.00 | 0.00 | 61 | 1014.0 |
| 20260507174154 | 71 | 200 | 1.0 | 2.0 | 0.00 | 0.00 | 0.00 | 61 | 1014.0 |
| 20260507173651 | 70 | 243 | 3.0 | 5.0 | 0.00 | 0.00 | 0.00 | 61 | 1014.0 |
| 20260507173147 | 70 | 251 | 4.0 | 6.0 | 0.00 | 0.00 | 0.00 | 63 | 1014.4 |
| 20260507172643 | 70 | 290 | 1.0 | 1.0 | 0.00 | 0.00 | 0.00 | 62 | 1014.0 |
| 20260507172136 | 70 | 206 | 3.0 | 6.0 | 0.00 | 0.00 | 0.00 | 62 | 1014.0 |
| 20260507171635 | 69 | 139 | 3.0 | 6.0 | 0.00 | 0.00 | 0.00 | 65 | 1014.4 |
| 20260507171133 | 69 | 242 | 1.0 | 6.0 | 0.00 | 0.00 | 0.00 | 64 | 1014.4 |
| 20260507170630 | 69 | 182 | 2.0 | 5.0 | 0.00 | 0.00 | 0.00 | 64 | 1014.4 |
| 20260507170127 | 70 | 165 | 0.0 | 1.0 | 0.00 | 0.00 | 0.00 | 63 | 1014.4 |
| 20260507165623 | 70 | 228 | 1.0 | 2.0 | 0.00 | 0.00 | 0.00 | 65 | 1014.0 |
| 20260507165119 | 69 | 170 | 1.0 | 3.0 | 0.00 | 0.00 | 0.00 | 66 | 1014.4 |
| 20260507164615 | 68 | 234 | 4.0 | 5.0 | 0.00 | 0.00 | 0.00 | 67 | 1014.4 |
| 20260507164112 | 67 | 144 | 2.0 | 3.0 | 0.00 | 0.00 | 0.00 | 68 | 1014.4 |
| 20260507163609 | 67 | 237 | 4.0 | 5.0 | 0.00 | 0.00 | 0.00 | 70 | 1014.0 |
| 20260507163107 | 67 | 214 | 3.0 | 5.0 | 0.00 | 0.00 | 0.00 | 69 | 1014.4 |
| 20260507162602 | 66 | 183 | 3.0 | 6.0 | 0.00 | 0.00 | 0.00 | 70 | 1014.7 |
| 20260507162059 | 66 | 200 | 3.0 | 5.0 | 0.00 | 0.00 | 0.00 | 70 | 1014.7 |
| 20260507161555 | 66 | 156 | 2.0 | 5.0 | 0.00 | 0.00 | 0.00 | 71 | 1014.4 |
| 20260507161052 | 66 | 158 | 4.0 | 5.0 | 0.00 | 0.00 | 0.00 | 71 | 1014.4 |
| 20260507160548 | 64 | 327 | 1.0 | 2.0 | 0.00 | 0.00 | 0.00 | 73 | 1014.4 |
| 20260507160045 | 65 | 263 | 2.0 | 3.0 | 0.00 | 0.00 | 0.00 | 73 | 1014.4 |
| 20260507155540 | 66 | 223 | 3.0 | 3.0 | 0.00 | 0.00 | 0.00 | 71 | 1014.4 |
| 20260507155037 | 65 | 125 | 0.0 | 1.0 | 0.00 | 0.00 | 0.00 | 73 | 1014.7 |
| 20260507154534 | 64 | 195 | 0.0 | 2.0 | 0.00 | 0.00 | 0.00 | 75 | 1014.7 |
| 20260507154031 | 64 | 174 | 2.0 | 3.0 | 0.00 | 0.00 | 0.00 | 73 | 1014.4 |
| 20260507153528 | 64 | 152 | 3.0 | 5.0 | 0.00 | 0.00 | 0.00 | 76 | 1014.7 |
| 20260507153024 | 64 | 180 | 0.0 | 1.0 | 0.00 | 0.00 | 0.00 | 74 | 1014.7 |
| 20260507152520 | 63 | 101 | 2.0 | 2.0 | 0.00 | 0.00 | 0.00 | 75 | 1014.7 |
| 20260507152017 | 63 | 157 | 1.0 | 3.0 | 0.00 | 0.00 | 0.00 | 76 | 1014.7 |
| 20260507151513 | 63 | 196 | 2.0 | 5.0 | 0.00 | 0.00 | 0.00 | 76 | 1015.1 |
| 20260507151010 | 63 | 81 | 1.0 | 3.0 | 0.00 | 0.00 | 0.00 | 77 | 1014.7 |
| 20260507150507 | 63 | 150 | 3.0 | 3.0 | 0.00 | 0.00 | 0.00 | 76 | 1014.7 |
| 20260507150004 | 63 | 190 | 1.0 | 2.0 | 0.00 | 0.00 | 0.00 | 76 | 1014.7 |
| 20260507145459 | 62 | 104 | 2.0 | 3.0 | 0.00 | 0.00 | 0.00 | 77 | 1015.1 |
| 20260507144956 | 62 | 209 | 0.0 | 1.0 | 0.00 | 0.00 | 0.00 | 79 | 1015.1 |
| 20260507144453 | 62 | 196 | 1.0 | 1.0 | 0.00 | 0.00 | 0.00 | 77 | 1014.7 |
| 20260507143950 | 61 | 133 | 1.0 | 1.0 | 0.00 | 0.00 | 0.00 | 78 | 1014.7 |
| 20260507143448 | 61 | 142 | 2.0 | 2.0 | 0.00 | 0.00 | 0.00 | 79 | 1014.7 |
| 20260507142944 | 61 | 148 | 2.0 | 2.0 | 0.00 | 0.00 | 0.00 | 80 | 1014.4 |
| 20260507142440 | 60 | 165 | 0.0 | 2.0 | 0.00 | 0.00 | 0.00 | 80 | 1014.4 |
| 20260507141937 | 61 | 166 | 2.0 | 2.0 | 0.00 | 0.00 | 0.00 | 79 | 1014.4 |
| 20260507141433 | 60 | 148 | 0.0 | 1.0 | 0.00 | 0.00 | 0.00 | 80 | 1014.4 |
| 20260507140930 | 61 | 108 | 0.0 | 0.0 | 0.00 | 0.00 | 0.00 | 78 | 1014.4 |
| 20260507140426 | 60 | 108 | 0.0 | 0.0 | 0.00 | 0.00 | 0.00 | 79 | 1014.4 |
| 20260507135925 | 59 | 108 | 0.0 | 1.0 | 0.00 | 0.00 | 0.00 | 81 | 1014.4 |
| 20260507135421 | 59 | 109 | 0.0 | 1.0 | 0.00 | 0.00 | 0.00 | 81 | 1014.4 |
| 20260507134918 | 59 | 109 | 0.0 | 0.0 | 0.00 | 0.00 | 0.00 | 81 | 1014.4 |
| 20260507134415 | 58 | 109 | 0.0 | 0.0 | 0.00 | 0.00 | 0.00 | 83 | 1014.0 |
| 20260507133910 | 57 | 109 | 0.0 | 0.0 | 0.00 | 0.00 | 0.00 | 84 | 1014.0 |
| 20260507133406 | 56 | 109 | 0.0 | 0.0 | 0.00 | 0.00 | 0.00 | 86 | 1014.0 |
| 20260507132906 | 55 | 109 | 0.0 | 0.0 | 0.00 | 0.00 | 0.00 | 87 | 1014.0 |
| 20260507132401 | 55 | 109 | 0.0 | 0.0 | 0.00 | 0.00 | 0.00 | 87 | 1014.0 |
| 20260507131858 | 55 | 108 | 0.0 | 0.0 | 0.00 | 0.00 | 0.00 | 88 | 1014.0 |
| 20260507131355 | 55 | 108 | 0.0 | 0.0 | 0.00 | 0.00 | 0.00 | 88 | 1014.0 |
| 20260507130852 | 55 | 108 | 0.0 | 0.0 | 0.00 | 0.00 | 0.00 | 88 | 1013.7 |
| 20260507130349 | 55 | 108 | 0.0 | 0.0 | 0.00 | 0.00 | 0.00 | 88 | 1014.0 |
| 20260507125848 | 54 | 108 | 0.0 | 0.0 | 0.00 | 0.00 | 0.00 | 88 | 1013.7 |
| 20260507125345 | 55 | 108 | 0.0 | 0.0 | 0.00 | 0.00 | 0.00 | 88 | 1013.7 |
| 20260507124843 | 55 | 108 | 0.0 | 0.0 | 0.00 | 0.00 | 0.00 | 88 | 1013.7 |
| 20260507124338 | 55 | 108 | 0.0 | 0.0 | 0.00 | 0.00 | 0.00 | 88 | 1013.7 |
| 20260507123837 | 55 | 108 | 0.0 | 0.0 | 0.00 | 0.00 | 0.00 | 88 | 1013.7 |
| 20260507123334 | 55 | 108 | 0.0 | 0.0 | 0.00 | 0.00 | 0.00 | 88 | 1013.7 |
| 20260507122830 | 55 | 108 | 0.0 | 0.0 | 0.00 | 0.00 | 0.00 | 88 | 1013.7 |
| 20260507122325 | 55 | 108 | 0.0 | 0.0 | 0.00 | 0.00 | 0.00 | 88 | 1013.7 |
| 20260507121823 | 55 | 108 | 0.0 | 0.0 | 0.00 | 0.00 | 0.00 | 88 | 1013.7 |
| 20260507121318 | 56 | 108 | 0.0 | 0.0 | 0.00 | 0.00 | 0.00 | 87 | 1013.7 |
| 20260507120814 | 56 | 108 | 0.0 | 0.0 | 0.00 | 0.00 | 0.00 | 87 | 1013.7 |
| 20260507120311 | 56 | 108 | 0.0 | 0.0 | 0.00 | 0.00 | 0.00 | 86 | 1013.7 |
| 20260507115807 | 56 | 108 | 0.0 | 0.0 | 0.00 | 0.00 | 0.00 | 86 | 1013.7 |
| 20260507115306 | 56 | 108 | 0.0 | 1.0 | 0.00 | 0.00 | 0.00 | 86 | 1013.7 |
| 20260507114759 | 56 | 109 | 0.0 | 0.0 | 0.00 | 0.00 | 0.00 | 86 | 1013.7 |
| 20260507114256 | 56 | 109 | 0.0 | 0.0 | 0.00 | 0.00 | 0.00 | 86 | 1013.7 |
| 20260507113753 | 56 | 109 | 0.0 | 1.0 | 0.00 | 0.00 | 0.00 | 87 | 1013.7 |
| 20260507113244 | 56 | 109 | 0.0 | 0.0 | 0.00 | 0.00 | 0.00 | 87 | 1013.7 |
| 20260507112742 | 55 | 109 | 0.0 | 0.0 | 0.00 | 0.00 | 0.00 | 87 | 1014.0 |
| 20260507112238 | 56 | 109 | 0.0 | 0.0 | 0.00 | 0.00 | 0.00 | 86 | 1014.0 |
| 20260507111737 | 56 | 109 | 0.0 | 0.0 | 0.00 | 0.00 | 0.00 | 86 | 1014.0 |
| 20260507111233 | 56 | 109 | 0.0 | 0.0 | 0.00 | 0.00 | 0.00 | 85 | 1014.0 |
| 20260507110729 | 56 | 109 | 0.0 | 0.0 | 0.00 | 0.00 | 0.00 | 85 | 1013.7 |
| 20260507110226 | 57 | 109 | 0.0 | 0.0 | 0.00 | 0.00 | 0.00 | 85 | 1014.0 |
| 20260507105722 | 56 | 109 | 0.0 | 0.0 | 0.00 | 0.00 | 0.00 | 85 | 1013.7 |
| 20260507105219 | 56 | 109 | 0.0 | 0.0 | 0.00 | 0.00 | 0.00 | 85 | 1014.0 |
| 20260507104716 | 57 | 109 | 0.0 | 0.0 | 0.00 | 0.00 | 0.00 | 83 | 1013.7 |
| 20260507104213 | 57 | 109 | 0.0 | 0.0 | 0.00 | 0.00 | 0.00 | 83 | 1013.7 |
| 20260507103708 | 57 | 109 | 0.0 | 1.0 | 0.00 | 0.00 | 0.00 | 83 | 1014.0 |
| 20260507103205 | 57 | 109 | 1.0 | 1.0 | 0.00 | 0.00 | 0.00 | 83 | 1014.0 |
| 20260507102701 | 57 | 109 | 0.0 | 0.0 | 0.00 | 0.00 | 0.00 | 83 | 1014.0 |
| 20260507102158 | 57 | 109 | 0.0 | 0.0 | 0.00 | 0.00 | 0.00 | 83 | 1014.0 |
| 20260507101654 | 57 | 109 | 0.0 | 0.0 | 0.00 | 0.00 | 0.00 | 83 | 1014.0 |
| 20260507101149 | 58 | 109 | 0.0 | 0.0 | 0.00 | 0.00 | 0.00 | 83 | 1014.0 |
| 20260507100647 | 58 | 109 | 0.0 | 0.0 | 0.00 | 0.00 | 0.00 | 83 | 1014.0 |
| 20260507100145 | 58 | 109 | 0.0 | 0.0 | 0.00 | 0.00 | 0.00 | 83 | 1014.4 |
| 20260507095643 | 58 | 109 | 0.0 | 0.0 | 0.00 | 0.00 | 0.00 | 82 | 1014.4 |
| 20260507095139 | 57 | 109 | 0.0 | 0.0 | 0.00 | 0.00 | 0.00 | 83 | 1014.0 |
| 20260507094636 | 58 | 109 | 0.0 | 0.0 | 0.00 | 0.00 | 0.00 | 83 | 1014.4 |
| 20260507094132 | 58 | 109 | 0.0 | 0.0 | 0.00 | 0.00 | 0.00 | 83 | 1014.0 |
| 20260507093630 | 58 | 109 | 0.0 | 0.0 | 0.00 | 0.00 | 0.00 | 83 | 1014.0 |
| 20260507093129 | 58 | 109 | 0.0 | 0.0 | 0.00 | 0.00 | 0.00 | 83 | 1014.0 |
| 20260507092625 | 58 | 109 | 0.0 | 0.0 | 0.00 | 0.00 | 0.00 | 83 | 1014.4 |
| 20260507092121 | 57 | 109 | 0.0 | 0.0 | 0.00 | 0.00 | 0.00 | 84 | 1014.4 |
| 20260507091618 | 57 | 109 | 0.0 | 0.0 | 0.00 | 0.00 | 0.00 | 83 | 1014.4 |
| 20260507091108 | 58 | 109 | 0.0 | 0.0 | 0.00 | 0.00 | 0.00 | 83 | 1014.4 |
| 20260507090604 | 58 | 109 | 0.0 | 0.0 | 0.00 | 0.00 | 0.00 | 82 | 1014.4 |
| 20260507085559 | 59 | 108 | 0.0 | 0.0 | 0.00 | 0.00 | 0.00 | 80 | 1014.7 |
| 20260507085055 | 59 | 108 | 0.0 | 0.0 | 0.00 | 0.00 | 0.00 | 80 | 1014.7 |
| 20260507084552 | 59 | 108 | 0.0 | 0.0 | 0.00 | 0.00 | 0.00 | 80 | 1014.7 |
| 20260507084049 | 59 | 108 | 0.0 | 0.0 | 0.00 | 0.00 | 0.00 | 80 | 1015.1 |
| 20260507083545 | 59 | 108 | 0.0 | 0.0 | 0.00 | 0.00 | 0.00 | 79 | 1014.7 |
| 20260507083042 | 59 | 108 | 0.0 | 0.0 | 0.00 | 0.00 | 0.00 | 79 | 1015.1 |
| 20260507082538 | 60 | 108 | 0.0 | 0.0 | 0.00 | 0.00 | 0.00 | 79 | 1015.1 |
| 20260507082035 | 60 | 108 | 0.0 | 1.0 | 0.00 | 0.00 | 0.00 | 78 | 1015.1 |
| 20260507081531 | 60 | 108 | 1.0 | 1.0 | 0.00 | 0.00 | 0.00 | 79 | 1014.7 |
| 20260507081028 | 60 | 109 | 0.0 | 0.0 | 0.00 | 0.00 | 0.00 | 79 | 1015.1 |
| 20260507080524 | 60 | 106 | 1.0 | 1.0 | 0.00 | 0.00 | 0.00 | 79 | 1015.1 |
| 20260507080021 | 60 | 111 | 0.0 | 0.0 | 0.00 | 0.00 | 0.00 | 79 | 1015.1 |
| 20260507075516 | 60 | 82 | 0.0 | 0.0 | 0.00 | 0.00 | 0.00 | 79 | 1015.1 |
| 20260507075013 | 60 | 81 | 1.0 | 2.0 | 0.00 | 0.00 | 0.00 | 78 | 1015.1 |
| 20260507074509 | 60 | 134 | 0.0 | 0.0 | 0.00 | 0.00 | 0.00 | 79 | 1014.7 |
| 20260507074008 | 60 | 132 | 0.0 | 1.0 | 0.00 | 0.00 | 0.00 | 78 | 1015.1 |
| 20260507073504 | 61 | 126 | 0.0 | 0.0 | 0.00 | 0.00 | 0.00 | 78 | 1015.1 |
| 20260507073000 | 61 | 90 | 1.0 | 1.0 | 0.00 | 0.00 | 0.00 | 77 | 1015.1 |
| 20260507072458 | 61 | 101 | 1.0 | 2.0 | 0.00 | 0.00 | 0.00 | 77 | 1015.1 |
| 20260507071955 | 61 | 142 | 0.0 | 0.0 | 0.00 | 0.00 | 0.00 | 77 | 1015.1 |
| 20260507071452 | 61 | 142 | 1.0 | 1.0 | 0.00 | 0.00 | 0.00 | 77 | 1015.1 |
| 20260507070948 | 61 | 142 | 0.0 | 0.0 | 0.00 | 0.00 | 0.00 | 77 | 1015.1 |
| 20260507070446 | 61 | 142 | 0.0 | 0.0 | 0.00 | 0.00 | 0.00 | 77 | 1015.1 |
| 20260507065942 | 61 | 142 | 0.0 | 1.0 | 0.00 | 0.00 | 0.00 | 77 | 1015.1 |
| 20260507065438 | 61 | 143 | 0.0 | 1.0 | 0.00 | 0.00 | 0.00 | 77 | 1015.1 |
| 20260507064931 | 61 | 142 | 0.0 | 1.0 | 0.00 | 0.00 | 0.00 | 77 | 1015.1 |
| 20260507064429 | 61 | 143 | 0.0 | 1.0 | 0.00 | 0.00 | 0.00 | 76 | 1015.1 |
| 20260507063926 | 61 | 143 | 0.0 | 0.0 | 0.00 | 0.00 | 0.00 | 76 | 1015.1 |
| 20260507063423 | 61 | 143 | 0.0 | 1.0 | 0.00 | 0.00 | 0.00 | 76 | 1015.1 |
| 20260507062920 | 61 | 143 | 0.0 | 0.0 | 0.00 | 0.00 | 0.00 | 76 | 1015.4 |
| 20260507062417 | 62 | 142 | 0.0 | 0.0 | 0.00 | 0.00 | 0.00 | 75 | 1015.4 |
| 20260507061914 | 62 | 143 | 0.0 | 0.0 | 0.00 | 0.00 | 0.00 | 75 | 1015.1 |
| 20260507061413 | 62 | 143 | 0.0 | 0.0 | 0.00 | 0.00 | 0.00 | 75 | 1015.1 |
| 20260507060911 | 62 | 142 | 0.0 | 0.0 | 0.00 | 0.00 | 0.00 | 75 | 1015.4 |
| 20260507060407 | 62 | 143 | 0.0 | 0.0 | 0.00 | 0.00 | 0.00 | 75 | 1015.1 |
| 20260507055904 | 62 | 146 | 1.0 | 1.0 | 0.00 | 0.00 | 0.00 | 74 | 1015.4 |
| 20260507055358 | 62 | 149 | 0.0 | 0.0 | 0.00 | 0.00 | 0.00 | 74 | 1015.4 |
| 20260507054850 | 62 | 149 | 0.0 | 1.0 | 0.00 | 0.00 | 0.00 | 74 | 1015.1 |
| 20260507054346 | 63 | 200 | 0.0 | 0.0 | 0.00 | 0.00 | 0.00 | 73 | 1015.1 |
| 20260507053844 | 63 | 171 | 0.0 | 0.0 | 0.00 | 0.00 | 0.00 | 71 | 1015.4 |
| 20260507053341 | 63 | 171 | 0.0 | 1.0 | 0.00 | 0.00 | 0.00 | 70 | 1015.4 |
| 20260507052840 | 63 | 171 | 0.0 | 0.0 | 0.00 | 0.00 | 0.00 | 70 | 1015.1 |
| 20260507052336 | 63 | 155 | 0.0 | 1.0 | 0.00 | 0.00 | 0.00 | 73 | 1015.1 |
| 20260507051834 | 63 | 140 | 0.0 | 1.0 | 0.00 | 0.00 | 0.00 | 73 | 1015.1 |
| 20260507051332 | 63 | 143 | 2.0 | 2.0 | 0.00 | 0.00 | 0.00 | 73 | 1015.1 |
| 20260507050828 | 63 | 166 | 1.0 | 2.0 | 0.00 | 0.00 | 0.00 | 73 | 1015.1 |
| 20260507050324 | 63 | 141 | 0.0 | 1.0 | 0.00 | 0.00 | 0.00 | 72 | 1015.1 |
| 20260507045822 | 63 | 138 | 2.0 | 2.0 | 0.00 | 0.00 | 0.00 | 72 | 1015.1 |
| 20260507045318 | 64 | 137 | 1.0 | 2.0 | 0.00 | 0.00 | 0.00 | 72 | 1015.1 |
| 20260507044815 | 64 | 142 | 1.0 | 2.0 | 0.00 | 0.00 | 0.00 | 72 | 1015.1 |
| 20260507044312 | 64 | 139 | 1.0 | 2.0 | 0.00 | 0.00 | 0.00 | 71 | 1015.1 |
| 20260507043808 | 64 | 168 | 2.0 | 3.0 | 0.00 | 0.00 | 0.00 | 71 | 1015.1 |
| 20260507043305 | 64 | 175 | 2.0 | 3.0 | 0.00 | 0.00 | 0.00 | 71 | 1015.1 |
| 20260507042801 | 64 | 167 | 1.0 | 2.0 | 0.00 | 0.00 | 0.00 | 71 | 1015.1 |
| 20260507042256 | 64 | 173 | 1.0 | 2.0 | 0.00 | 0.00 | 0.00 | 71 | 1015.1 |
| 20260507041754 | 64 | 162 | 1.0 | 2.0 | 0.00 | 0.00 | 0.00 | 71 | 1015.1 |
| 20260507041250 | 64 | 182 | 1.0 | 2.0 | 0.00 | 0.00 | 0.00 | 71 | 1014.7 |
| 20260507040747 | 64 | 176 | 2.0 | 3.0 | 0.00 | 0.00 | 0.00 | 71 | 1015.1 |
| 20260507040243 | 64 | 165 | 0.0 | 1.0 | 0.00 | 0.00 | 0.00 | 71 | 1015.1 |
| 20260507035739 | 64 | 177 | 1.0 | 2.0 | 0.00 | 0.00 | 0.00 | 71 | 1015.1 |
| 20260507035235 | 64 | 170 | 2.0 | 3.0 | 0.00 | 0.00 | 0.00 | 71 | 1014.7 |
| 20260507034733 | 64 | 190 | 2.0 | 5.0 | 0.00 | 0.00 | 0.00 | 70 | 1014.7 |
| 20260507034229 | 64 | 190 | 2.0 | 3.0 | 0.00 | 0.00 | 0.00 | 70 | 1014.7 |
| 20260507033728 | 64 | 182 | 3.0 | 5.0 | 0.00 | 0.00 | 0.00 | 70 | 1014.4 |
| 20260507033225 | 65 | 170 | 2.0 | 3.0 | 0.00 | 0.00 | 0.00 | 69 | 1014.7 |
| 20260507032722 | 65 | 160 | 2.0 | 2.0 | 0.00 | 0.00 | 0.00 | 69 | 1014.4 |
| 20260507032218 | 65 | 194 | 0.0 | 3.0 | 0.00 | 0.00 | 0.00 | 68 | 1014.7 |
| 20260507031715 | 65 | 211 | 3.0 | 5.0 | 0.00 | 0.00 | 0.00 | 68 | 1014.4 |
| 20260507031212 | 65 | 154 | 3.0 | 5.0 | 0.00 | 0.00 | 0.00 | 67 | 1014.4 |
| 20260507030708 | 65 | 171 | 4.0 | 5.0 | 0.00 | 0.00 | 0.00 | 67 | 1014.4 |
| 20260507030206 | 66 | 166 | 3.0 | 5.0 | 0.00 | 0.00 | 0.00 | 66 | 1014.0 |
| 20260507025703 | 66 | 215 | 1.0 | 2.0 | 0.00 | 0.00 | 0.00 | 67 | 1014.4 |
| 20260507025200 | 66 | 205 | 2.0 | 3.0 | 0.00 | 0.00 | 0.00 | 67 | 1014.4 |
| 20260507024658 | 66 | 176 | 4.0 | 5.0 | 0.00 | 0.00 | 0.00 | 67 | 1014.0 |
| 20260507024155 | 66 | 170 | 3.0 | 3.0 | 0.00 | 0.00 | 0.00 | 66 | 1014.4 |
| 20260507023650 | 66 | 193 | 3.0 | 6.0 | 0.00 | 0.00 | 0.00 | 66 | 1014.0 |
| 20260507023148 | 66 | 172 | 3.0 | 5.0 | 0.00 | 0.00 | 0.00 | 65 | 1014.0 |
| 20260507022645 | 67 | 202 | 2.0 | 6.0 | 0.00 | 0.00 | 0.00 | 65 | 1014.0 |
| 20260507022141 | 67 | 226 | 2.0 | 5.0 | 0.00 | 0.00 | 0.00 | 64 | 1013.7 |
| 20260507021637 | 67 | 214 | 1.0 | 5.0 | 0.00 | 0.00 | 0.00 | 63 | 1013.7 |
| 20260507021132 | 68 | 228 | 3.0 | 6.0 | 0.00 | 0.00 | 0.00 | 62 | 1013.7 |
| 20260507020631 | 68 | 250 | 5.0 | 6.0 | 0.00 | 0.00 | 0.00 | 60 | 1013.7 |
| 20260507020127 | 68 | 211 | 1.0 | 5.0 | 0.00 | 0.00 | 0.00 | 58 | 1013.7 |
| 20260507015626 | 68 | 221 | 4.0 | 7.0 | 0.00 | 0.00 | 0.00 | 59 | 1013.7 |
| 20260507015122 | 69 | 215 | 5.0 | 6.0 | 0.00 | 0.00 | 0.00 | 58 | 1013.7 |
| 20260507014619 | 69 | 219 | 2.0 | 5.0 | 0.00 | 0.00 | 0.00 | 57 | 1013.7 |
| 20260507014115 | 69 | 183 | 2.0 | 6.0 | 0.00 | 0.00 | 0.00 | 56 | 1013.7 |
| 20260507013612 | 69 | 220 | 1.0 | 5.0 | 0.00 | 0.00 | 0.00 | 55 | 1013.7 |
| 20260507013109 | 70 | 254 | 6.0 | 7.0 | 0.00 | 0.00 | 0.00 | 56 | 1013.7 |
| 20260507012606 | 70 | 227 | 1.0 | 5.0 | 0.00 | 0.00 | 0.00 | 57 | 1013.7 |
| 20260507012101 | 69 | 204 | 1.0 | 5.0 | 0.00 | 0.00 | 0.00 | 57 | 1013.7 |
| 20260507011600 | 70 | 228 | 7.0 | 8.0 | 0.00 | 0.00 | 0.00 | 59 | 1013.4 |
| 20260507011055 | 70 | 206 | 2.0 | 7.0 | 0.00 | 0.00 | 0.00 | 56 | 1013.4 |
| 20260507010550 | 70 | 237 | 3.0 | 7.0 | 0.00 | 0.00 | 0.00 | 56 | 1013.7 |
| 20260507010047 | 70 | 244 | 4.0 | 8.0 | 0.00 | 0.00 | 0.00 | 56 | 1013.4 |
| 20260507005544 | 71 | 216 | 6.0 | 7.0 | 0.00 | 0.00 | 0.00 | 55 | 1013.7 |
| 20260507005040 | 71 | 199 | 5.0 | 6.0 | 0.00 | 0.00 | 0.00 | 56 | 1013.7 |
| 20260507004538 | 72 | 202 | 3.0 | 7.0 | 0.00 | 0.00 | 0.00 | 55 | 1013.4 |
| 20260507004035 | 71 | 217 | 3.0 | 8.0 | 0.00 | 0.00 | 0.00 | 56 | 1013.0 |
| 20260507003531 | 71 | 217 | 4.0 | 6.0 | 0.00 | 0.00 | 0.00 | 54 | 1013.4 |
| 20260507003026 | 72 | 254 | 7.0 | 8.0 | 0.00 | 0.00 | 0.00 | 54 | 1013.4 |
| 20260507002523 | 72 | 210 | 3.0 | 7.0 | 0.00 | 0.00 | 0.00 | 54 | 1013.4 |
| 20260507002019 | 72 | 206 | 2.0 | 7.0 | 0.00 | 0.00 | 0.00 | 53 | 1013.0 |
| 20260507001515 | 72 | 187 | 4.0 | 7.0 | 0.00 | 0.00 | 0.00 | 54 | 1013.4 |
| 20260507001013 | 72 | 221 | 2.0 | 6.0 | 0.00 | 0.00 | 0.00 | 53 | 1013.4 |
| 20260507000509 | 72 | 204 | 5.0 | 7.0 | 0.00 | 0.00 | 0.00 | 52 | 1013.4 |
| 20260507000005 | 73 | 224 | 4.0 | 7.0 | 0.00 | 0.00 | 0.00 | 52 | 1013.4 |
| 20260506235502 | 72 | 224 | 5.0 | 9.0 | 0.00 | 0.00 | 0.00 | 53 | 1013.0 |
| 20260506234958 | 73 | 218 | 2.0 | 7.0 | 0.00 | 0.00 | 0.00 | 52 | 1013.4 |
| 20260506234455 | 73 | 196 | 5.0 | 9.0 | 0.00 | 0.00 | 0.00 | 52 | 1013.0 |
| 20260506233952 | 72 | 212 | 5.0 | 8.0 | 0.00 | 0.00 | 0.00 | 52 | 1013.4 |
| 20260506233449 | 72 | 214 | 5.0 | 8.0 | 0.00 | 0.00 | 0.00 | 52 | 1013.4 |
| 20260506232945 | 72 | 250 | 4.0 | 9.0 | 0.00 | 0.00 | 0.00 | 52 | 1013.4 |
| 20260506232442 | 72 | 242 | 5.0 | 7.0 | 0.00 | 0.00 | 0.00 | 51 | 1013.4 |